ペトロパブロフスク・カムチャツキー の空港の天気 - METARとTAF

ペトロパブロフスク・カムチャツキー空港 ( UHPP / PKC ) - ロシア ペトロパブロフスク・カムチャツキー
飛行場実況気象(Metar)
観測時間04/22 03:00 MAGT (04/21 16:00 UTC)
風向・風速東 2m/s
視程10km以上
天気現象
全天の8割程度の雲 雲底高度 1280m
気温-3℃
湿度80%
気圧1023hPa
METARUHPP 211600Z 08002MPS 9999 BKN042 M03/M06 Q1023 R16R/CLRD70 NOSIG RMK QFE764/1019
過去の天気等 Google飛行場航空写真 Wunderground天気予報

過去48時間のMETAR

飛行場予報(TAF)
発表時間: 4/22 00:42 MAGT (4/21 13:42 UTC)
予報対象時間: 22日2時 MAGT ~ 23日8時 MAGT
風向・風速北 3m/s 瞬間風速 8m/s
視程10km以上
なし
22日2時 MAGT ~ 22日9時 MAGT に一時的に
視程1000m
天気現象もや
全天を覆う雲 鉛直視程 90m
22日9時 MAGT から
風向・風速南 3m/s 瞬間風速 10m/s
視程10km以上
全天の4割程度の積乱雲 雲底高度 910m
22日19時 MAGT ~ 23日8時 MAGT に一時的に
視程2000m
天気現象もや
全天の8割程度の雲 雲底高度 340m
全天を覆う積乱雲 雲底高度 610m
TAF UHPP 211342Z 2115/2221 36003G08MPS 9999 NSC
TEMPO 2115/2122 1000 BR VV003
FM212200 18003G10MPS 9999 SCT030CB
TEMPO 2208/2221 2000 BR BKN011 OVC020CB